sensor_id;sensor_type;location;lat;lon;timestamp;pressure;altitude;pressure_sealevel;temperature;humidity
47374;BME280;33123;50.118;10.272;2023-04-03T00:01:24;98604.81;;;5.44;66.14
47374;BME280;33123;50.118;10.272;2023-04-03T00:03:51;98608.44;;;5.43;65.67
47374;BME280;33123;50.118;10.272;2023-04-03T00:06:18;98612.03;;;5.42;65.74
47374;BME280;33123;50.118;10.272;2023-04-03T00:08:44;98602.59;;;5.41;65.82
47374;BME280;33123;50.118;10.272;2023-04-03T00:11:11;98607.81;;;5.41;66.10
47374;BME280;33123;50.118;10.272;2023-04-03T00:13:38;98606.22;;;5.40;66.38
47374;BME280;33123;50.118;10.272;2023-04-03T00:16:07;98605.19;;;5.41;66.29
47374;BME280;33123;50.118;10.272;2023-04-03T00:18:34;98605.56;;;5.38;66.64
47374;BME280;33123;50.118;10.272;2023-04-03T00:21:01;98608.63;;;5.41;66.26
47374;BME280;33123;50.118;10.272;2023-04-03T00:23:28;98612.47;;;5.45;66.14
47374;BME280;33123;50.118;10.272;2023-04-03T00:25:54;98601.03;;;5.46;66.23
47374;BME280;33123;50.118;10.272;2023-04-03T00:28:21;98597.41;;;5.47;66.24
47374;BME280;33123;50.118;10.272;2023-04-03T00:30:49;98604.06;;;5.50;66.65
47374;BME280;33123;50.118;10.272;2023-04-03T00:33:18;98613.53;;;5.51;66.72
47374;BME280;33123;50.118;10.272;2023-04-03T00:35:47;98607.09;;;5.53;67.08
47374;BME280;33123;50.118;10.272;2023-04-03T00:38:13;98606.09;;;5.54;66.90
47374;BME280;33123;50.118;10.272;2023-04-03T00:40:42;98598.25;;;5.54;67.26
47374;BME280;33123;50.118;10.272;2023-04-03T00:43:12;98606.72;;;5.56;67.40
47374;BME280;33123;50.118;10.272;2023-04-03T00:45:40;98584.50;;;5.39;66.85
47374;BME280;33123;50.118;10.272;2023-04-03T00:48:09;98606.53;;;5.58;66.73
47374;BME280;33123;50.118;10.272;2023-04-03T00:50:40;98606.31;;;5.60;67.01
47374;BME280;33123;50.118;10.272;2023-04-03T00:53:10;98608.78;;;5.61;66.97
47374;BME280;33123;50.118;10.272;2023-04-03T00:55:38;98605.31;;;5.61;67.01
47374;BME280;33123;50.118;10.272;2023-04-03T00:58:05;98606.31;;;5.60;67.04
47374;BME280;33123;50.118;10.272;2023-04-03T01:00:32;98605.31;;;5.61;66.07
47374;BME280;33123;50.118;10.272;2023-04-03T01:03:00;98607.13;;;5.60;66.89
47374;BME280;33123;50.118;10.272;2023-04-03T01:05:27;98601.91;;;5.60;66.24
47374;BME280;33123;50.118;10.272;2023-04-03T01:07:56;98602.69;;;5.61;66.53
47374;BME280;33123;50.118;10.272;2023-04-03T01:10:23;98596.66;;;5.60;66.56
47374;BME280;33123;50.118;10.272;2023-04-03T01:12:51;98607.13;;;5.60;65.57
47374;BME280;33123;50.118;10.272;2023-04-03T01:15:24;98597.47;;;5.61;65.16
47374;BME280;33123;50.118;10.272;2023-04-03T01:17:52;98601.72;;;5.62;64.99
47374;BME280;33123;50.118;10.272;2023-04-03T01:20:50;98602.34;;;5.64;64.81
47374;BME280;33123;50.118;10.272;2023-04-03T01:23:36;98609.97;;;5.65;65.29
47374;BME280;33123;50.118;10.272;2023-04-03T01:26:07;98609.97;;;5.65;65.01
47374;BME280;33123;50.118;10.272;2023-04-03T01:28:35;98608.00;;;5.67;64.33
47374;BME280;33123;50.118;10.272;2023-04-03T01:31:08;98549.47;;;5.34;63.98
47374;BME280;33123;50.118;10.272;2023-04-03T01:33:38;98606.78;;;5.70;63.62
47374;BME280;33123;50.118;10.272;2023-04-03T01:36:06;98607.59;;;5.70;63.71
47374;BME280;33123;50.118;10.272;2023-04-03T01:38:33;98613.47;;;5.72;63.82
47374;BME280;33123;50.118;10.272;2023-04-03T01:40:59;98614.06;;;5.74;63.48
47374;BME280;33123;50.118;10.272;2023-04-03T01:43:26;98612.84;;;5.70;63.57
47374;BME280;33123;50.118;10.272;2023-04-03T01:45:53;98612.47;;;5.73;63.80
47374;BME280;33123;50.118;10.272;2023-04-03T01:48:20;98610.00;;;5.72;62.85
47374;BME280;33123;50.118;10.272;2023-04-03T01:50:48;98624.53;;;5.74;62.97
47374;BME280;33123;50.118;10.272;2023-04-03T01:53:14;98616.09;;;5.72;62.80
47374;BME280;33123;50.118;10.272;2023-04-03T01:55:41;98613.47;;;5.72;63.83
47374;BME280;33123;50.118;10.272;2023-04-03T01:58:07;98612.84;;;5.70;63.79
47374;BME280;33123;50.118;10.272;2023-04-03T02:00:34;98617.25;;;5.70;63.11
47374;BME280;33123;50.118;10.272;2023-04-03T02:03:01;98613.03;;;5.69;63.89
47374;BME280;33123;50.118;10.272;2023-04-03T02:05:28;98614.84;;;5.68;63.67
47374;BME280;33123;50.118;10.272;2023-04-03T02:07:56;98620.44;;;5.65;63.77
47374;BME280;33123;50.118;10.272;2023-04-03T02:10:22;98617.03;;;5.65;63.62
47374;BME280;33123;50.118;10.272;2023-04-03T02:12:49;98615.97;;;5.59;62.86
47374;BME280;33123;50.118;10.272;2023-04-03T02:15:16;98611.16;;;5.56;62.71
47374;BME280;33123;50.118;10.272;2023-04-03T02:17:43;98623.97;;;5.51;62.29
47374;BME280;33123;50.118;10.272;2023-04-03T02:20:10;98623.34;;;5.49;62.73
47374;BME280;33123;50.118;10.272;2023-04-03T02:22:37;98631.59;;;5.46;62.91
47374;BME280;33123;50.118;10.272;2023-04-03T02:25:05;98627.94;;;5.40;62.34
47374;BME280;33123;50.118;10.272;2023-04-03T02:27:32;98633.34;;;5.39;62.33
47374;BME280;33123;50.118;10.272;2023-04-03T02:29:58;98637.94;;;5.37;62.18
47374;BME280;33123;50.118;10.272;2023-04-03T02:32:25;98637.09;;;5.29;61.94
47374;BME280;33123;50.118;10.272;2023-04-03T02:34:51;98638.69;;;5.30;62.60
47374;BME280;33123;50.118;10.272;2023-04-03T02:37:18;98625.78;;;5.22;62.61
47374;BME280;33123;50.118;10.272;2023-04-03T02:39:45;98601.78;;;5.12;62.25
47374;BME280;33123;50.118;10.272;2023-04-03T02:42:13;98638.69;;;5.30;62.18
47374;BME280;33123;50.118;10.272;2023-04-03T02:44:40;98635.44;;;5.22;61.96
47374;BME280;33123;50.118;10.272;2023-04-03T02:47:06;98638.22;;;5.20;62.61
47374;BME280;33123;50.118;10.272;2023-04-03T02:49:33;98635.34;;;5.15;62.01
47374;BME280;33123;50.118;10.272;2023-04-03T02:51:59;98631.88;;;5.08;62.35
47374;BME280;33123;50.118;10.272;2023-04-03T02:54:26;98637.59;;;4.97;61.43
47374;BME280;33123;50.118;10.272;2023-04-03T02:56:56;98644.25;;;4.99;62.16
47374;BME280;33123;50.118;10.272;2023-04-03T02:59:24;98645.44;;;4.97;61.58
47374;BME280;33123;50.118;10.272;2023-04-03T03:01:50;98648.78;;;4.91;61.79
47374;BME280;33123;50.118;10.272;2023-04-03T03:04:17;98646.47;;;4.81;61.60
47374;BME280;33123;50.118;10.272;2023-04-03T03:06:44;98636.59;;;4.76;61.72
47374;BME280;33123;50.118;10.272;2023-04-03T03:09:11;98638.38;;;4.76;62.29
47374;BME280;33123;50.118;10.272;2023-04-03T03:11:39;98635.53;;;4.71;62.21
47374;BME280;33123;50.118;10.272;2023-04-03T03:14:06;98639.69;;;4.65;62.07
47374;BME280;33123;50.118;10.272;2023-04-03T03:16:34;98570.25;;;4.13;62.64
47374;BME280;33123;50.118;10.272;2023-04-03T03:19:00;98642.03;;;4.60;62.63
47374;BME280;33123;50.118;10.272;2023-04-03T03:21:27;98648.44;;;4.58;62.12
47374;BME280;33123;50.118;10.272;2023-04-03T03:23:54;98645.22;;;4.56;62.47
47374;BME280;33123;50.118;10.272;2023-04-03T03:26:20;98648.38;;;4.51;62.38
47374;BME280;33123;50.118;10.272;2023-04-03T03:28:47;98653.16;;;4.47;62.84
47374;BME280;33123;50.118;10.272;2023-04-03T03:31:13;98647.25;;;4.39;62.75
47374;BME280;33123;50.118;10.272;2023-04-03T03:33:41;98645.31;;;4.33;62.19
47374;BME280;33123;50.118;10.272;2023-04-03T03:36:08;98651.94;;;4.29;62.50
47374;BME280;33123;50.118;10.272;2023-04-03T03:38:35;98640.94;;;4.18;62.82
47374;BME280;33123;50.118;10.272;2023-04-03T03:41:02;98651.38;;;4.18;63.09
47374;BME280;33123;50.118;10.272;2023-04-03T03:43:28;98644.28;;;4.12;62.65
47374;BME280;33123;50.118;10.272;2023-04-03T03:45:55;98647.97;;;4.03;62.82
47374;BME280;33123;50.118;10.272;2023-04-03T03:48:22;98644.91;;;4.00;62.74
47374;BME280;33123;50.118;10.272;2023-04-03T03:50:50;98642.84;;;3.95;62.99
47374;BME280;33123;50.118;10.272;2023-04-03T03:53:17;98648.94;;;3.87;63.04
47374;BME280;33123;50.118;10.272;2023-04-03T03:55:44;98648.53;;;3.84;63.16
47374;BME280;33123;50.118;10.272;2023-04-03T03:58:11;98643.84;;;3.79;63.20
47374;BME280;33123;50.118;10.272;2023-04-03T04:00:37;98645.97;;;3.76;62.98
47374;BME280;33123;50.118;10.272;2023-04-03T04:03:04;98643.75;;;3.73;63.14
47374;BME280;33123;50.118;10.272;2023-04-03T04:05:31;98651.28;;;3.67;63.55
47374;BME280;33123;50.118;10.272;2023-04-03T04:07:59;98654.78;;;3.60;63.46
47374;BME280;33123;50.118;10.272;2023-04-03T04:10:25;98642.91;;;3.57;63.92
47374;BME280;33123;50.118;10.272;2023-04-03T04:12:52;98649.47;;;3.53;63.95
47374;BME280;33123;50.118;10.272;2023-04-03T04:15:18;98651.59;;;3.50;64.02
47374;BME280;33123;50.118;10.272;2023-04-03T04:17:46;98649.69;;;3.43;64.14
47374;BME280;33123;50.118;10.272;2023-04-03T04:20:13;98648.91;;;3.43;65.43
47374;BME280;33123;50.118;10.272;2023-04-03T04:22:40;98641.88;;;3.43;64.95
47374;BME280;33123;50.118;10.272;2023-04-03T04:25:08;98640.78;;;3.38;64.37
47374;BME280;33123;50.118;10.272;2023-04-03T04:27:35;98646.38;;;3.35;64.49
47374;BME280;33123;50.118;10.272;2023-04-03T04:30:03;98642.31;;;3.32;64.81
47374;BME280;33123;50.118;10.272;2023-04-03T04:32:29;98650.69;;;3.28;64.96
47374;BME280;33123;50.118;10.272;2023-04-03T04:35:00;98652.63;;;3.26;65.20
47374;BME280;33123;50.118;10.272;2023-04-03T04:37:32;98616.09;;;2.96;65.10
47374;BME280;33123;50.118;10.272;2023-04-03T04:39:59;98666.34;;;3.20;65.68
47374;BME280;33123;50.118;10.272;2023-04-03T04:42:27;98661.50;;;3.16;65.62
47374;BME280;33123;50.118;10.272;2023-04-03T04:44:53;98661.66;;;3.15;65.35
47374;BME280;33123;50.118;10.272;2023-04-03T04:47:20;98658.34;;;3.06;65.29
47374;BME280;33123;50.118;10.272;2023-04-03T04:49:46;98658.97;;;3.08;65.71
47374;BME280;33123;50.118;10.272;2023-04-03T04:52:13;98661.91;;;3.05;65.24
47374;BME280;33123;50.118;10.272;2023-04-03T04:54:40;98667.09;;;3.05;65.88
47374;BME280;33123;50.118;10.272;2023-04-03T04:57:07;98656.69;;;3.05;65.75
47374;BME280;33123;50.118;10.272;2023-04-03T04:59:35;98657.06;;;3.02;65.66
47374;BME280;33123;50.118;10.272;2023-04-03T05:02:01;98672.69;;;3.02;65.66
47374;BME280;33123;50.118;10.272;2023-04-03T05:04:28;98672.50;;;3.04;65.92
47374;BME280;33123;50.118;10.272;2023-04-03T05:06:55;98671.69;;;3.03;65.69
47374;BME280;33123;50.118;10.272;2023-04-03T05:09:21;98668.91;;;3.05;66.02
47374;BME280;33123;50.118;10.272;2023-04-03T05:11:48;98669.56;;;3.07;65.49
47374;BME280;33123;50.118;10.272;2023-04-03T05:14:15;98670.38;;;3.07;65.67
47374;BME280;33123;50.118;10.272;2023-04-03T05:16:45;98680.25;;;3.12;65.61
47374;BME280;33123;50.118;10.272;2023-04-03T05:19:12;98643.16;;;2.87;65.65
47374;BME280;33123;50.118;10.272;2023-04-03T05:21:39;98680.72;;;3.15;65.70
47374;BME280;33123;50.118;10.272;2023-04-03T05:24:06;98687.00;;;3.21;65.83
47374;BME280;33123;50.118;10.272;2023-04-03T05:26:34;98696.22;;;3.32;65.70
47374;BME280;33123;50.118;10.272;2023-04-03T05:29:01;98684.38;;;3.29;65.22
47374;BME280;33123;50.118;10.272;2023-04-03T05:31:27;98698.47;;;3.58;65.09
47374;BME280;33123;50.118;10.272;2023-04-03T05:33:56;98697.34;;;3.90;64.93
47374;BME280;33123;50.118;10.272;2023-04-03T05:36:22;98692.88;;;4.28;63.01
47374;BME280;33123;50.118;10.272;2023-04-03T05:38:49;98694.63;;;4.72;61.76
47374;BME280;33123;50.118;10.272;2023-04-03T05:41:16;98705.91;;;5.15;60.03
47374;BME280;33123;50.118;10.272;2023-04-03T05:43:42;98706.44;;;5.53;58.99
47374;BME280;33123;50.118;10.272;2023-04-03T05:46:10;98703.59;;;5.98;57.61
47374;BME280;33123;50.118;10.272;2023-04-03T05:48:37;98705.50;;;6.52;55.82
47374;BME280;33123;50.118;10.272;2023-04-03T05:51:06;98711.34;;;7.02;53.78
47374;BME280;33123;50.118;10.272;2023-04-03T05:53:35;98713.03;;;7.69;51.67
47374;BME280;33123;50.118;10.272;2023-04-03T05:56:03;98710.13;;;8.30;51.12
47374;BME280;33123;50.118;10.272;2023-04-03T05:58:30;98718.44;;;8.85;48.43
47374;BME280;33123;50.118;10.272;2023-04-03T06:00:56;98721.91;;;9.49;48.31
47374;BME280;33123;50.118;10.272;2023-04-03T06:03:23;98724.50;;;10.05;46.21
47374;BME280;33123;50.118;10.272;2023-04-03T06:05:50;98725.44;;;10.36;44.46
47374;BME280;33123;50.118;10.272;2023-04-03T06:08:18;98731.50;;;10.37;44.51
47374;BME280;33123;50.118;10.272;2023-04-03T06:10:45;98733.25;;;10.24;43.34
47374;BME280;33123;50.118;10.272;2023-04-03T06:13:12;98729.03;;;10.42;43.21
47374;BME280;33123;50.118;10.272;2023-04-03T06:15:39;98708.88;;;10.47;43.43
47374;BME280;33123;50.118;10.272;2023-04-03T06:18:06;98728.09;;;11.03;42.94
47374;BME280;33123;50.118;10.272;2023-04-03T06:20:35;98722.22;;;11.31;41.80
47374;BME280;33123;50.118;10.272;2023-04-03T06:23:04;98731.44;;;11.40;40.73
47374;BME280;33123;50.118;10.272;2023-04-03T06:25:32;98728.41;;;11.67;41.24
47374;BME280;33123;50.118;10.272;2023-04-03T06:27:59;98732.81;;;12.08;41.26
47374;BME280;33123;50.118;10.272;2023-04-03T06:30:27;98728.78;;;12.29;40.01
47374;BME280;33123;50.118;10.272;2023-04-03T06:32:54;98733.09;;;12.58;38.94
47374;BME280;33123;50.118;10.272;2023-04-03T06:35:21;98728.91;;;12.86;39.13
47374;BME280;33123;50.118;10.272;2023-04-03T06:37:49;98734.69;;;13.11;38.18
47374;BME280;33123;50.118;10.272;2023-04-03T06:40:20;98742.03;;;12.81;38.50
47374;BME280;33123;50.118;10.272;2023-04-03T06:42:50;98741.09;;;12.87;38.42
47374;BME280;33123;50.118;10.272;2023-04-03T06:45:18;98745.31;;;13.00;37.75
47374;BME280;33123;50.118;10.272;2023-04-03T06:47:48;98737.34;;;13.11;38.33
47374;BME280;33123;50.118;10.272;2023-04-03T06:50:16;98742.69;;;13.28;38.13
47374;BME280;33123;50.118;10.272;2023-04-03T06:52:47;98744.66;;;13.33;37.15
47374;BME280;33123;50.118;10.272;2023-04-03T06:55:16;98747.34;;;13.09;36.20
47374;BME280;33123;50.118;10.272;2023-04-03T06:57:43;98743.75;;;13.15;37.13
47374;BME280;33123;50.118;10.272;2023-04-03T07:00:12;98757.66;;;12.94;36.96
47374;BME280;33123;50.118;10.272;2023-04-03T07:02:40;98753.81;;;13.02;37.55
47374;BME280;33123;50.118;10.272;2023-04-03T07:05:07;98755.78;;;12.42;37.62
47374;BME280;33123;50.118;10.272;2023-04-03T07:07:34;98759.72;;;12.28;38.73
47374;BME280;33123;50.118;10.272;2023-04-03T07:10:02;98765.13;;;12.22;38.39
47374;BME280;33123;50.118;10.272;2023-04-03T07:12:29;98764.75;;;11.95;38.74
47374;BME280;33123;50.118;10.272;2023-04-03T07:14:56;98769.69;;;12.14;39.42
47374;BME280;33123;50.118;10.272;2023-04-03T07:17:25;98773.47;;;11.95;38.28
47374;BME280;33123;50.118;10.272;2023-04-03T07:19:52;98773.38;;;12.25;38.84
47374;BME280;33123;50.118;10.272;2023-04-03T07:22:21;98776.13;;;12.42;38.33
47374;BME280;33123;50.118;10.272;2023-04-03T07:24:49;98776.66;;;12.79;37.67
47374;BME280;33123;50.118;10.272;2023-04-03T07:27:15;98778.59;;;12.84;35.77
47374;BME280;33123;50.118;10.272;2023-04-03T07:29:43;98751.41;;;13.00;38.51
47374;BME280;33123;50.118;10.272;2023-04-03T07:32:10;98779.69;;;13.11;36.05
47374;BME280;33123;50.118;10.272;2023-04-03T07:34:38;98777.91;;;12.77;37.13
47374;BME280;33123;50.118;10.272;2023-04-03T07:37:06;98784.53;;;12.27;36.96
47374;BME280;33123;50.118;10.272;2023-04-03T07:39:34;98786.25;;;11.68;37.95
47374;BME280;33123;50.118;10.272;2023-04-03T07:42:02;98787.97;;;11.02;40.17
47374;BME280;33123;50.118;10.272;2023-04-03T07:44:28;98799.53;;;10.46;40.45
47374;BME280;33123;50.118;10.272;2023-04-03T07:46:56;98804.47;;;10.11;40.97
47374;BME280;33123;50.118;10.272;2023-04-03T07:49:22;98797.97;;;9.89;41.68
47374;BME280;33123;50.118;10.272;2023-04-03T07:51:50;98798.19;;;9.56;41.76
47374;BME280;33123;50.118;10.272;2023-04-03T07:54:18;98797.00;;;9.51;43.15
47374;BME280;33123;50.118;10.272;2023-04-03T07:56:45;98801.31;;;9.71;43.39
47374;BME280;33123;50.118;10.272;2023-04-03T07:59:11;98797.81;;;10.09;42.45
47374;BME280;33123;50.118;10.272;2023-04-03T08:01:38;98794.88;;;10.67;42.19
47374;BME280;33123;50.118;10.272;2023-04-03T08:04:05;98794.44;;;11.48;42.26
47374;BME280;33123;50.118;10.272;2023-04-03T08:06:32;98799.09;;;11.64;38.73
47374;BME280;33123;50.118;10.272;2023-04-03T08:09:02;98799.09;;;11.64;37.91
47374;BME280;33123;50.118;10.272;2023-04-03T08:11:30;98810.09;;;11.50;36.91
47374;BME280;33123;50.118;10.272;2023-04-03T08:13:57;98801.41;;;11.61;37.41
47374;BME280;33123;50.118;10.272;2023-04-03T08:16:24;98796.19;;;11.54;36.60
47374;BME280;33123;50.118;10.272;2023-04-03T08:18:52;98807.78;;;11.23;36.90
47374;BME280;33123;50.118;10.272;2023-04-03T08:21:19;98808.47;;;11.19;37.72
47374;BME280;33123;50.118;10.272;2023-04-03T08:23:47;98803.47;;;11.29;37.57
47374;BME280;33123;50.118;10.272;2023-04-03T08:26:18;98816.06;;;11.57;37.09
47374;BME280;33123;50.118;10.272;2023-04-03T08:28:45;98818.88;;;11.74;38.18
47374;BME280;33123;50.118;10.272;2023-04-03T08:31:16;98780.28;;;11.31;38.23
47374;BME280;33123;50.118;10.272;2023-04-03T08:33:44;98811.84;;;11.37;37.81
47374;BME280;33123;50.118;10.272;2023-04-03T08:36:17;98774.03;;;10.77;39.68
47374;BME280;33123;50.118;10.272;2023-04-03T08:38:45;98824.75;;;10.97;39.77
47374;BME280;33123;50.118;10.272;2023-04-03T08:41:18;98822.78;;;11.11;39.99
47374;BME280;33123;50.118;10.272;2023-04-03T08:44:03;98822.81;;;11.04;39.44
47374;BME280;33123;50.118;10.272;2023-04-03T08:46:40;98825.09;;;10.82;39.76
47374;BME280;33123;50.118;10.272;2023-04-03T08:49:14;98834.41;;;10.85;41.26
47374;BME280;33123;50.118;10.272;2023-04-03T08:51:47;98827.16;;;10.62;39.29
47374;BME280;33123;50.118;10.272;2023-04-03T08:54:23;98837.56;;;10.32;37.95
47374;BME280;33123;50.118;10.272;2023-04-03T08:56:53;98833.47;;;10.04;40.35
47374;BME280;33123;50.118;10.272;2023-04-03T08:59:26;98836.56;;;9.70;38.58
47374;BME280;33123;50.118;10.272;2023-04-03T09:01:56;98835.66;;;9.83;39.95
47374;BME280;33123;50.118;10.272;2023-04-03T09:04:25;98840.16;;;10.07;40.83
47374;BME280;33123;50.118;10.272;2023-04-03T09:06:55;98838.69;;;10.43;40.76
47374;BME280;33123;50.118;10.272;2023-04-03T09:09:31;98833.00;;;10.64;40.06
47374;BME280;33123;50.118;10.272;2023-04-03T09:12:06;98839.09;;;10.65;36.69
47374;BME280;33123;50.118;10.272;2023-04-03T09:14:39;98838.75;;;10.54;38.53
47374;BME280;33123;50.118;10.272;2023-04-03T09:17:13;98839.53;;;10.62;39.75
47374;BME280;33123;50.118;10.272;2023-04-03T09:19:48;98838.47;;;10.44;37.39
47374;BME280;33123;50.118;10.272;2023-04-03T09:22:20;98841.75;;;10.40;38.44
47374;BME280;33123;50.118;10.272;2023-04-03T09:24:52;98848.31;;;10.74;40.45
47374;BME280;33123;50.118;10.272;2023-04-03T09:27:23;98834.41;;;10.85;35.37
47374;BME280;33123;50.118;10.272;2023-04-03T09:29:52;98849.63;;;10.65;36.13
47374;BME280;33123;50.118;10.272;2023-04-03T09:32:25;98845.22;;;10.58;37.17
47374;BME280;33123;50.118;10.272;2023-04-03T09:34:53;98847.38;;;10.43;36.18
47374;BME280;33123;50.118;10.272;2023-04-03T09:37:34;98834.19;;;10.18;37.15
47374;BME280;33123;50.118;10.272;2023-04-03T09:40:03;98783.69;;;9.71;36.10
47374;BME280;33123;50.118;10.272;2023-04-03T09:42:32;98832.59;;;9.54;35.36
47374;BME280;33123;50.118;10.272;2023-04-03T09:45:00;98833.72;;;9.40;35.36
47374;BME280;33123;50.118;10.272;2023-04-03T09:47:29;98827.81;;;9.44;34.76
47374;BME280;33123;50.118;10.272;2023-04-03T09:50:17;98829.56;;;9.12;34.45
47374;BME280;33123;50.118;10.272;2023-04-03T09:52:46;98830.53;;;9.63;37.29
47374;BME280;33123;50.118;10.272;2023-04-03T09:55:15;98823.44;;;9.95;33.82
47374;BME280;33123;50.118;10.272;2023-04-03T09:57:45;98831.28;;;10.33;32.14
47374;BME280;33123;50.118;10.272;2023-04-03T10:00:20;98826.66;;;10.90;32.70
47374;BME280;33123;50.118;10.272;2023-04-03T10:02:50;98813.91;;;11.66;31.77
47374;BME280;33123;50.118;10.272;2023-04-03T10:05:31;98815.22;;;12.17;29.98
47374;BME280;33123;50.118;10.272;2023-04-03T10:08:18;98816.53;;;13.01;32.21
47374;BME280;33123;50.118;10.272;2023-04-03T10:10:47;98817.78;;;13.10;27.51
47374;BME280;33123;50.118;10.272;2023-04-03T10:13:17;98816.56;;;12.89;27.13
47374;BME280;33123;50.118;10.272;2023-04-03T10:15:48;98822.31;;;12.75;27.97
47374;BME280;33123;50.118;10.272;2023-04-03T10:18:28;98803.72;;;12.34;28.80
47374;BME280;33123;50.118;10.272;2023-04-03T10:20:58;98802.56;;;12.19;27.19
47374;BME280;33123;50.118;10.272;2023-04-03T10:23:30;98798.56;;;12.16;27.40
47374;BME280;33123;50.118;10.272;2023-04-03T10:26:07;98799.50;;;11.80;27.13
47374;BME280;33123;50.118;10.272;2023-04-03T10:28:44;98794.53;;;12.60;28.72
47374;BME280;33123;50.118;10.272;2023-04-03T10:31:19;98785.88;;;13.29;31.31
47374;BME280;33123;50.118;10.272;2023-04-03T10:33:51;98794.94;;;13.61;28.18
47374;BME280;33123;50.118;10.272;2023-04-03T10:36:28;98788.28;;;14.09;29.84
47374;BME280;33123;50.118;10.272;2023-04-03T10:39:08;98803.31;;;14.04;30.25
47374;BME280;33123;50.118;10.272;2023-04-03T10:41:46;98797.69;;;14.50;32.51
47374;BME280;33123;50.118;10.272;2023-04-03T10:44:28;98803.28;;;14.54;30.06
47374;BME280;33123;50.118;10.272;2023-04-03T10:47:03;98796.88;;;14.50;29.11
47374;BME280;33123;50.118;10.272;2023-04-03T10:49:41;98795.97;;;14.44;30.33
47374;BME280;33123;50.118;10.272;2023-04-03T10:52:17;98786.09;;;14.40;29.36
47374;BME280;33123;50.118;10.272;2023-04-03T10:54:52;98793.47;;;14.71;30.01
47374;BME280;33123;50.118;10.272;2023-04-03T10:57:22;98795.91;;;14.56;29.51
47374;BME280;33123;50.118;10.272;2023-04-03T10:59:56;98782.97;;;14.09;28.79
47374;BME280;33123;50.118;10.272;2023-04-03T11:02:26;98792.47;;;14.05;29.62
47374;BME280;33123;50.118;10.272;2023-04-03T11:04:59;98787.91;;;14.00;30.35
47374;BME280;33123;50.118;10.272;2023-04-03T11:07:32;98789.66;;;14.29;29.88
47374;BME280;33123;50.118;10.272;2023-04-03T11:10:02;98776.66;;;14.10;29.68
47374;BME280;33123;50.118;10.272;2023-04-03T11:12:38;98774.56;;;13.79;29.18
47374;BME280;33123;50.118;10.272;2023-04-03T11:15:12;98777.50;;;13.82;30.12
47374;BME280;33123;50.118;10.272;2023-04-03T11:17:41;98768.75;;;13.82;27.05
47374;BME280;33123;50.118;10.272;2023-04-03T11:20:17;98772.16;;;13.20;27.92
47374;BME280;33123;50.118;10.272;2023-04-03T11:22:47;98766.88;;;13.20;28.69
47374;BME280;33123;50.118;10.272;2023-04-03T11:25:19;98764.69;;;13.29;29.95
47374;BME280;33123;50.118;10.272;2023-04-03T11:27:52;98759.78;;;13.66;30.51
47374;BME280;33123;50.118;10.272;2023-04-03T11:30:23;98767.78;;;13.88;28.43
47374;BME280;33123;50.118;10.272;2023-04-03T11:33:12;98754.38;;;13.44;26.82
47374;BME280;33123;50.118;10.272;2023-04-03T11:35:44;98754.78;;;13.53;28.16
47374;BME280;33123;50.118;10.272;2023-04-03T11:38:18;98759.97;;;13.47;29.66
47374;BME280;33123;50.118;10.272;2023-04-03T11:40:49;98761.59;;;13.65;28.47
47374;BME280;33123;50.118;10.272;2023-04-03T11:43:22;98755.09;;;13.56;29.16
47374;BME280;33123;50.118;10.272;2023-04-03T11:45:56;98710.38;;;13.14;27.98
47374;BME280;33123;50.118;10.272;2023-04-03T11:48:47;98753.22;;;13.11;26.58
47374;BME280;33123;50.118;10.272;2023-04-03T11:51:44;98744.78;;;13.14;27.59
47374;BME280;33123;50.118;10.272;2023-04-03T11:57:45;98749.06;;;12.75;28.72
47374;BME280;33123;50.118;10.272;2023-04-03T12:00:48;98736.19;;;12.79;31.85
47374;BME280;33123;50.118;10.272;2023-04-03T12:06:50;98739.84;;;12.89;32.07
47374;BME280;33123;50.118;10.272;2023-04-03T12:09:28;98733.53;;;13.07;30.64
47374;BME280;33123;50.118;10.272;2023-04-03T12:11:57;98728.00;;;12.80;28.67
47374;BME280;33123;50.118;10.272;2023-04-03T12:14:27;98737.50;;;12.93;27.69
47374;BME280;33123;50.118;10.272;2023-04-03T12:16:55;98696.56;;;12.55;28.20
47374;BME280;33123;50.118;10.272;2023-04-03T12:19:31;98718.16;;;12.92;30.34
47374;BME280;33123;50.118;10.272;2023-04-03T12:22:11;98722.22;;;12.95;31.56
47374;BME280;33123;50.118;10.272;2023-04-03T12:24:40;98716.72;;;12.85;27.61
47374;BME280;33123;50.118;10.272;2023-04-03T12:27:26;98712.22;;;12.85;28.56
47374;BME280;33123;50.118;10.272;2023-04-03T12:30:04;98715.47;;;12.24;28.01
47374;BME280;33123;50.118;10.272;2023-04-03T12:32:52;98708.31;;;12.36;30.78
47374;BME280;33123;50.118;10.272;2023-04-03T12:35:28;98723.03;;;12.32;30.81
47374;BME280;33123;50.118;10.272;2023-04-03T12:38:19;98711.69;;;12.08;27.30
47374;BME280;33123;50.118;10.272;2023-04-03T12:40:53;98706.47;;;11.78;28.45
47374;BME280;33123;50.118;10.272;2023-04-03T12:43:32;98706.72;;;11.88;30.29
47374;BME280;33123;50.118;10.272;2023-04-03T12:46:04;98696.88;;;11.95;32.10
47374;BME280;33123;50.118;10.272;2023-04-03T12:48:32;98697.31;;;12.15;29.20
47374;BME280;33123;50.118;10.272;2023-04-03T12:51:00;98689.91;;;11.47;28.39
47374;BME280;33123;50.118;10.272;2023-04-03T12:53:32;98699.09;;;11.15;29.33
47374;BME280;33123;50.118;10.272;2023-04-03T12:56:21;98689.78;;;11.00;31.25
47374;BME280;33123;50.118;10.272;2023-04-03T12:58:49;98691.72;;;10.75;31.67
47374;BME280;33123;50.118;10.272;2023-04-03T13:01:18;98693.56;;;11.04;35.57
47374;BME280;33123;50.118;10.272;2023-04-03T13:03:48;98695.31;;;11.10;33.60
47374;BME280;33123;50.118;10.272;2023-04-03T13:06:18;98692.03;;;11.27;35.69
47374;BME280;33123;50.118;10.272;2023-04-03T13:08:55;98652.44;;;11.27;34.34
47374;BME280;33123;50.118;10.272;2023-04-03T13:11:24;98682.47;;;11.56;32.34
47374;BME280;33123;50.118;10.272;2023-04-03T13:13:57;98691.22;;;11.26;29.38
47374;BME280;33123;50.118;10.272;2023-04-03T13:16:25;98689.53;;;11.44;31.05